Time;durP1;ratioP1;P1;durP2;ratioP2;P2;SDS_P1;SDS_P2;PMS_P1;PMS_P2;Temp;Humidity;BMP_temperature;BMP_pressure;BME280_temperature;BME280_humidity;BME280_pressure;Samples;Min_cycle;Max_cycle;Signal;HPM_P1;HPM_P2
2021/11/04 00:01:42;;;;;;;2.30;2.10;;;9.50;99.90;;;;;;5028968;28;20440;-53
2021/11/04 00:04:08;;;;;;;2.03;1.83;;;9.80;99.90;;;;;;5031716;28;20507;-52
2021/11/04 00:06:34;;;;;;;2.10;1.90;;;9.70;99.90;;;;;;5031899;28;20230;-53
2021/11/04 00:09:00;;;;;;;1.83;1.73;;;10.00;99.90;;;;;;5030966;28;20241;-53
2021/11/04 00:11:26;;;;;;;1.63;1.52;;;9.80;99.90;;;;;;5026689;28;20197;-53
2021/11/04 00:13:51;;;;;;;1.90;1.80;;;9.50;99.90;;;;;;5032228;28;20190;-52
2021/11/04 00:16:17;;;;;;;1.63;1.53;;;9.10;99.90;;;;;;5030432;28;20644;-52
2021/11/04 00:18:42;;;;;;;2.50;2.30;;;9.70;99.90;;;;;;5030950;28;20186;-53
2021/11/04 00:21:08;;;;;;;2.60;2.40;;;9.60;99.90;;;;;;5031054;28;20751;-52
2021/11/04 00:23:34;;;;;;;2.73;2.40;;;9.50;99.90;;;;;;5031439;28;20218;-52
2021/11/04 00:26:00;;;;;;;2.77;2.57;;;9.60;99.90;;;;;;5021425;28;20214;-52
2021/11/04 00:28:26;;;;;;;2.30;2.10;;;9.80;99.90;;;;;;5025053;28;20178;-52
2021/11/04 00:30:51;;;;;;;3.03;2.83;;;9.40;99.90;;;;;;5023398;28;20206;-53
2021/11/04 00:33:17;;;;;;;2.70;2.23;;;9.40;99.90;;;;;;5031657;28;20244;-53
2021/11/04 00:35:43;;;;;;;3.20;2.70;;;9.60;99.90;;;;;;5024716;28;20187;-52
2021/11/04 00:38:08;;;;;;;2.93;2.70;;;9.50;99.90;;;;;;5028335;28;20231;-52
2021/11/04 00:40:34;;;;;;;3.63;2.70;;;8.80;99.90;;;;;;5030417;28;20293;-53
2021/11/04 00:43:00;;;;;;;2.70;2.50;;;9.30;99.90;;;;;;5032093;28;20702;-53
2021/11/04 00:45:26;;;;;;;2.83;2.53;;;9.40;99.90;;;;;;5026450;28;20190;-53
2021/11/04 00:47:52;;;;;;;1.97;1.80;;;9.30;99.90;;;;;;5031872;28;20465;-53
2021/11/04 00:50:21;;;;;;;1.60;1.50;;;9.30;99.90;;;;;;5022096;28;20381;-52
2021/11/04 00:52:47;;;;;;;1.55;1.45;;;9.40;99.90;;;;;;5025382;28;20186;-52
2021/11/04 00:55:13;;;;;;;1.50;1.40;;;9.70;99.90;;;;;;5026656;28;20647;-52
2021/11/04 00:57:39;;;;;;;1.57;1.40;;;9.60;99.90;;;;;;5030549;28;20494;-52
2021/11/04 01:00:07;;;;;;;1.60;1.48;;;9.80;99.90;;;;;;5027099;28;20472;-52
2021/11/04 01:02:33;;;;;;;1.60;1.50;;;9.70;99.90;;;;;;5023458;28;20758;-52
2021/11/04 01:04:59;;;;;;;3.67;1.90;;;9.70;99.90;;;;;;5026920;28;20332;-52
2021/11/04 01:07:24;;;;;;;1.33;1.23;;;9.40;99.90;;;;;;5030695;28;20284;-52
2021/11/04 01:09:50;;;;;;;2.23;1.60;;;9.70;99.90;;;;;;5024342;28;20249;-52
2021/11/04 01:12:16;;;;;;;1.30;1.20;;;9.60;99.90;;;;;;5030778;28;20198;-52
2021/11/04 01:14:42;;;;;;;1.73;1.63;;;9.70;99.90;;;;;;5030052;28;20336;-52
2021/11/04 01:17:08;;;;;;;4.05;1.95;;;9.40;99.90;;;;;;5029505;28;20183;-52
2021/11/04 01:19:34;;;;;;;1.50;1.40;;;9.40;99.90;;;;;;5030039;28;20563;-52
2021/11/04 01:22:00;;;;;;;1.70;1.40;;;9.50;99.90;;;;;;5031262;28;20451;-53
2021/11/04 01:24:25;;;;;;;1.80;1.37;;;9.80;99.90;;;;;;5024594;28;20198;-52
2021/11/04 01:26:51;;;;;;;1.50;1.40;;;9.80;99.90;;;;;;5030698;28;20182;-52
2021/11/04 01:29:17;;;;;;;1.30;1.20;;;9.60;99.90;;;;;;5029845;28;20215;-53
2021/11/04 01:31:42;;;;;;;1.60;1.50;;;9.70;99.90;;;;;;5026895;28;20182;-53
2021/11/04 01:34:08;;;;;;;2.13;1.70;;;9.40;99.90;;;;;;5033250;28;20190;-52
2021/11/04 01:36:34;;;;;;;1.40;1.30;;;9.70;99.90;;;;;;5029934;28;20194;-52
2021/11/04 01:39:00;;;;;;;2.10;1.47;;;9.80;99.90;;;;;;5033473;28;20186;-53
2021/11/04 01:41:26;;;;;;;1.48;1.38;;;9.60;99.90;;;;;;5028981;28;20444;-52
2021/11/04 01:43:52;;;;;;;1.73;1.63;;;9.50;99.90;;;;;;5033897;28;20218;-53
2021/11/04 01:46:21;;;;;;;1.70;1.60;;;9.50;99.90;;;;;;5024984;28;20565;-52
2021/11/04 01:48:48;;;;;;;1.95;1.73;;;9.50;99.90;;;;;;5029617;28;20270;-52
2021/11/04 01:51:14;;;;;;;1.85;1.75;;;9.60;99.90;;;;;;5030226;28;20478;-53
2021/11/04 01:53:40;;;;;;;2.10;1.60;;;9.30;99.90;;;;;;5027544;28;20271;-53
2021/11/04 01:56:06;;;;;;;1.50;1.40;;;9.50;99.90;;;;;;5030378;28;20520;-52
2021/11/04 01:58:33;;;;;;;1.80;1.70;;;9.60;99.90;;;;;;5029844;28;20674;-52
2021/11/04 02:00:59;;;;;;;1.95;1.38;;;9.70;99.90;;;;;;5027804;28;20578;-52
2021/11/04 02:03:24;;;;;;;1.52;1.42;;;9.70;99.90;;;;;;5015857;28;20245;-53
2021/11/04 02:05:59;;;;;;;1.60;1.50;;;9.40;99.90;;;;;;5029795;28;20209;-52
2021/11/04 02:08:37;;;;;;;1.55;1.45;;;9.40;99.90;;;;;;5030023;28;20186;-52
2021/11/04 02:11:13;;;;;;;1.50;1.40;;;9.60;99.90;;;;;;5026132;28;20207;-53
2021/11/04 02:14:11;;;;;;;1.52;1.33;;;9.40;99.90;;;;;;5032020;28;20265;-52
2021/11/04 02:16:38;;;;;;;1.40;1.30;;;9.50;99.90;;;;;;5014162;28;20719;-53
2021/11/04 02:19:18;;;;;;;1.52;1.40;;;8.80;99.90;;;;;;5029128;28;20194;-53
2021/11/04 02:22:33;;;;;;;1.55;1.45;;;9.50;99.90;;;;;;5029641;28;20682;-52
2021/11/04 02:25:01;;;;;;;1.35;1.25;;;9.50;99.90;;;;;;5014910;28;20687;-52
2021/11/04 02:27:27;;;;;;;1.50;1.40;;;9.00;99.90;;;;;;5034157;28;20178;-53
2021/11/04 02:29:53;;;;;;;1.87;1.77;;;9.40;99.90;;;;;;5028201;28;20205;-53
2021/11/04 02:32:19;;;;;;;1.58;1.48;;;9.20;99.90;;;;;;5027280;28;20445;-52
2021/11/04 02:34:48;;;;;;;1.83;1.73;;;9.30;99.90;;;;;;5026663;28;20201;-52
2021/11/04 02:37:14;;;;;;;1.45;1.35;;;9.30;99.90;;;;;;5029135;28;20189;-52
2021/11/04 02:39:40;;;;;;;1.58;1.48;;;8.90;99.90;;;;;;5019610;28;20217;-52
2021/11/04 02:42:07;;;;;;;1.58;1.48;;;8.90;99.90;;;;;;5014224;28;20577;-53
2021/11/04 02:44:35;;;;;;;1.60;1.50;;;9.10;99.90;;;;;;5029411;28;20220;-52
2021/11/04 02:47:01;;;;;;;1.52;1.42;;;9.20;99.90;;;;;;5025350;28;20217;-52
2021/11/04 02:49:27;;;;;;;1.47;1.37;;;9.20;99.90;;;;;;5028958;28;20194;-53
2021/11/04 02:51:54;;;;;;;1.48;1.38;;;8.80;99.90;;;;;;5029419;28;20501;-53
2021/11/04 02:54:20;;;;;;;1.77;1.67;;;8.90;99.90;;;;;;5022645;28;20278;-52
2021/11/04 02:56:49;;;;;;;1.40;1.30;;;8.60;99.90;;;;;;5029300;28;20269;-52
2021/11/04 02:59:17;;;;;;;1.52;1.42;;;8.80;99.90;;;;;;5028576;28;20494;-52
2021/11/04 03:01:44;;;;;;;2.42;1.90;;;8.70;99.90;;;;;;5025662;28;20190;-52
2021/11/04 03:04:13;;;;;;;1.30;1.20;;;8.60;99.90;;;;;;5028396;28;20210;-52
2021/11/04 03:06:39;;;;;;;2.03;1.38;;;8.80;99.90;;;;;;5029794;28;20607;-52
2021/11/04 03:09:05;;;;;;;1.73;1.37;;;8.90;99.90;;;;;;5020896;28;20266;-52
2021/11/04 03:11:31;;;;;;;1.20;1.10;;;8.50;99.90;;;;;;5029180;28;20472;-52
2021/11/04 03:13:56;;;;;;;1.33;1.23;;;8.50;99.90;;;;;;5028793;28;20197;-53
2021/11/04 03:16:24;;;;;;;1.30;0.93;;;8.20;99.90;;;;;;5028217;28;20191;-52
2021/11/04 03:18:50;;;;;;;1.15;1.05;;;8.50;99.90;;;;;;5028083;28;20684;-52
2021/11/04 03:21:17;;;;;;;1.23;1.13;;;8.60;99.90;;;;;;5029450;28;20190;-52
2021/11/04 03:23:42;;;;;;;1.30;1.20;;;8.40;99.90;;;;;;5028540;28;20206;-53
2021/11/04 03:26:10;;;;;;;1.00;0.90;;;8.60;99.90;;;;;;5023858;28;20228;-53
2021/11/04 03:28:36;;;;;;;1.23;0.90;;;8.40;99.90;;;;;;5029310;28;20178;-52
2021/11/04 03:31:03;;;;;;;1.00;0.90;;;8.20;99.90;;;;;;5020195;28;20218;-52
2021/11/04 03:33:31;;;;;;;0.82;0.82;;;8.40;99.90;;;;;;5032746;28;20433;-52
2021/11/04 03:35:59;;;;;;;0.70;0.70;;;8.20;99.90;;;;;;5033087;28;20186;-52
2021/11/04 03:38:25;;;;;;;0.80;0.80;;;8.30;99.90;;;;;;5032397;28;20236;-52
2021/11/04 03:40:55;;;;;;;0.88;0.88;;;8.50;99.90;;;;;;5028088;28;20253;-52
2021/11/04 03:43:21;;;;;;;1.05;0.95;;;8.00;99.90;;;;;;5036809;28;20206;-52
2021/11/04 03:45:49;;;;;;;1.60;0.93;;;8.30;99.90;;;;;;5028068;28;20201;-52
2021/11/04 03:48:15;;;;;;;1.20;1.10;;;8.20;99.90;;;;;;5032802;28;20627;-52
2021/11/04 03:50:41;;;;;;;1.13;0.90;;;8.40;99.90;;;;;;5032656;28;20206;-52
2021/11/04 03:53:07;;;;;;;1.20;0.83;;;8.30;99.90;;;;;;5032753;28;20276;-52
2021/11/04 03:55:34;;;;;;;0.95;0.95;;;8.40;99.90;;;;;;5028723;28;20447;-52
2021/11/04 03:58:01;;;;;;;1.27;0.90;;;8.20;99.90;;;;;;5032558;28;20222;-52
2021/11/04 04:00:27;;;;;;;1.10;1.00;;;8.20;99.90;;;;;;5031055;28;20202;-53
2021/11/04 04:02:53;;;;;;;1.40;1.30;;;7.60;99.90;;;;;;5030887;28;20209;-52
2021/11/04 04:05:30;;;;;;;0.80;0.80;;;8.20;99.90;;;;;;5032563;28;20182;-52
2021/11/04 04:07:56;;;;;;;1.63;1.50;;;8.20;99.90;;;;;;5031875;28;20921;-52
2021/11/04 04:10:23;;;;;;;0.80;0.80;;;8.20;99.90;;;;;;5031913;28;20627;-52
2021/11/04 04:12:49;;;;;;;1.00;0.95;;;8.00;99.90;;;;;;5033157;28;20210;-52
2021/11/04 04:15:14;;;;;;;0.90;0.80;;;8.10;99.90;;;;;;5031560;28;20225;-52
2021/11/04 04:17:40;;;;;;;3.57;1.10;;;8.10;99.90;;;;;;5031858;28;20182;-52
2021/11/04 04:20:07;;;;;;;0.80;0.70;;;8.20;99.90;;;;;;5031740;28;20470;-52
2021/11/04 04:22:32;;;;;;;1.13;0.75;;;8.50;99.90;;;;;;5032265;28;20457;-51
2021/11/04 04:24:58;;;;;;;1.23;1.13;;;7.70;99.90;;;;;;5030438;28;20204;-52
2021/11/04 04:27:24;;;;;;;1.10;0.93;;;8.10;99.90;;;;;;5031892;28;20228;-52
2021/11/04 04:29:50;;;;;;;2.07;1.10;;;7.90;99.90;;;;;;5030831;28;20198;-51
2021/11/04 04:32:15;;;;;;;1.10;1.00;;;8.00;99.90;;;;;;5025054;28;20408;-52
2021/11/04 04:34:44;;;;;;;1.30;1.10;;;8.00;99.90;;;;;;5032691;28;20174;-51
2021/11/04 04:37:10;;;;;;;1.27;1.17;;;7.90;99.90;;;;;;5031506;28;20265;-52
2021/11/04 04:39:37;;;;;;;2.10;1.20;;;7.90;99.90;;;;;;5011526;28;20288;-52
2021/11/04 04:42:04;;;;;;;1.23;1.02;;;8.10;99.90;;;;;;5035297;28;20432;-52
2021/11/04 04:44:30;;;;;;;1.10;1.02;;;7.80;99.90;;;;;;5031629;28;20627;-52
2021/11/04 04:46:56;;;;;;;0.90;0.90;;;7.90;99.90;;;;;;5028038;28;20589;-51
2021/11/04 04:49:22;;;;;;;2.42;2.22;;;7.80;99.90;;;;;;5033907;28;20873;-52
2021/11/04 04:51:47;;;;;;;1.20;1.00;;;7.80;99.90;;;;;;5031782;28;20277;-52
2021/11/04 04:54:13;;;;;;;1.90;1.20;;;8.20;99.90;;;;;;5023599;28;20509;-52
2021/11/04 04:56:39;;;;;;;1.63;1.17;;;7.40;99.90;;;;;;5031459;28;20193;-53
2021/11/04 04:59:04;;;;;;;1.40;1.30;;;7.90;99.90;;;;;;5030558;28;20190;-52
2021/11/04 05:01:30;;;;;;;1.30;1.20;;;7.80;99.90;;;;;;5027812;28;20193;-52
2021/11/04 05:03:56;;;;;;;1.00;1.00;;;7.90;99.90;;;;;;5028431;28;20207;-52
2021/11/04 05:06:22;;;;;;;1.20;1.07;;;7.80;99.90;;;;;;5031544;28;20305;-53
2021/11/04 05:08:47;;;;;;;1.43;1.33;;;8.00;99.90;;;;;;5031342;28;20209;-52
2021/11/04 05:11:13;;;;;;;1.47;1.37;;;7.70;99.90;;;;;;5031319;28;20285;-52
2021/11/04 05:13:39;;;;;;;2.20;1.70;;;7.60;99.90;;;;;;5029726;28;20197;-52
2021/11/04 05:16:05;;;;;;;1.40;1.30;;;7.80;99.90;;;;;;5030492;28;20197;-52
2021/11/04 05:18:31;;;;;;;1.33;1.17;;;8.00;99.90;;;;;;5031244;28;20193;-52
2021/11/04 05:20:56;;;;;;;1.30;1.20;;;8.20;99.90;;;;;;5038956;28;20213;-52
2021/11/04 05:23:22;;;;;;;1.53;1.43;;;7.90;99.90;;;;;;5030967;28;20451;-52
2021/11/04 05:25:48;;;;;;;1.83;1.60;;;8.10;99.90;;;;;;5029762;28;20586;-52
2021/11/04 05:28:13;;;;;;;1.80;1.53;;;7.50;99.90;;;;;;5031161;28;20183;-52
2021/11/04 05:30:39;;;;;;;1.10;1.00;;;8.20;99.90;;;;;;5027305;28;20202;-52
2021/11/04 05:33:05;;;;;;;2.10;1.38;;;8.00;99.90;;;;;;5029752;28;20188;-52
2021/11/04 05:35:31;;;;;;;1.17;1.10;;;7.90;99.90;;;;;;5020556;28;20186;-53
2021/11/04 05:37:57;;;;;;;2.50;1.47;;;8.10;99.90;;;;;;5032949;28;20240;-52
2021/11/04 05:40:22;;;;;;;1.50;1.37;;;7.70;99.90;;;;;;5026693;28;20206;-52
2021/11/04 05:42:49;;;;;;;1.40;1.03;;;7.90;99.90;;;;;;5030652;28;20216;-52
2021/11/04 05:45:15;;;;;;;1.10;1.00;;;7.80;99.90;;;;;;5012781;28;20282;-52
2021/11/04 05:47:41;;;;;;;1.57;1.07;;;7.80;99.90;;;;;;5024138;28;20726;-52
2021/11/04 05:50:07;;;;;;;1.40;1.30;;;8.00;99.90;;;;;;5030144;28;20202;-52
2021/11/04 05:52:33;;;;;;;1.50;0.98;;;7.80;99.90;;;;;;5030669;28;20426;-52
2021/11/04 05:54:59;;;;;;;1.10;1.07;;;8.00;99.90;;;;;;5022040;28;20194;-52
2021/11/04 05:57:25;;;;;;;0.87;0.80;;;7.80;99.90;;;;;;5021248;28;20186;-54
2021/11/04 05:59:50;;;;;;;0.80;0.80;;;7.90;99.90;;;;;;5036182;28;20452;-54
2021/11/04 06:02:16;;;;;;;0.70;0.70;;;7.80;99.90;;;;;;5018263;28;20253;-53
2021/11/04 06:04:47;;;;;;;0.90;0.70;;;7.90;99.90;;;;;;5027299;28;20191;-52
2021/11/04 06:07:14;;;;;;;1.00;0.70;;;8.40;99.90;;;;;;5025378;28;20236;-54
2021/11/04 06:09:41;;;;;;;0.90;0.90;;;7.80;99.90;;;;;;5023314;28;20294;-53
2021/11/04 06:12:08;;;;;;;0.85;0.85;;;7.60;99.90;;;;;;5021276;28;20218;-53
2021/11/04 06:14:34;;;;;;;1.33;0.90;;;8.20;99.90;;;;;;5022784;28;20667;-54
2021/11/04 06:17:00;;;;;;;1.10;1.00;;;7.90;99.90;;;;;;5025132;28;20197;-54
2021/11/04 06:19:26;;;;;;;1.60;1.00;;;7.90;99.90;;;;;;5026730;28;20978;-53
2021/11/04 06:21:52;;;;;;;1.10;1.00;;;7.90;99.90;;;;;;5025321;28;20261;-51
2021/11/04 06:24:17;;;;;;;1.13;1.07;;;8.10;99.90;;;;;;5026010;28;20586;-52
2021/11/04 06:26:43;;;;;;;0.83;0.83;;;7.80;99.90;;;;;;5029991;28;20433;-52
2021/11/04 06:29:08;;;;;;;1.77;1.67;;;8.10;99.90;;;;;;5030170;28;20182;-52
2021/11/04 06:31:34;;;;;;;1.53;1.43;;;8.00;99.90;;;;;;5025158;28;20635;-52
2021/11/04 06:34:00;;;;;;;2.70;0.87;;;8.10;99.90;;;;;;5027906;28;20681;-52
2021/11/04 06:36:26;;;;;;;1.37;1.20;;;8.20;99.90;;;;;;5029570;28;20945;-52
2021/11/04 06:38:52;;;;;;;1.90;1.70;;;8.10;99.90;;;;;;5029599;28;20435;-54
2021/11/04 06:41:17;;;;;;;1.40;1.30;;;8.20;99.90;;;;;;5024547;28;20182;-54
2021/11/04 06:43:44;;;;;;;1.10;1.00;;;8.00;99.90;;;;;;5026804;28;20498;-54
2021/11/04 06:46:12;;;;;;;2.20;1.95;;;8.00;99.90;;;;;;5024051;28;20257;-51
